Estación meteorológica de Montseny - Vallcàrquera (Vallès Oriental, Parc Natural del Montseny)

Consulta los datos en tiempo real de la estación meteorológica de Montseny - Vallcàrquera





Hora UTC 10:35
Temperatura 33.4 ºC
Humedad 38.1 %
Pluja 0.0 mm
Velocidad viento 5.4 km/h
Dirección viento SW
Radiación solar 771.5 W/m²

Datos diarios 2026-09-04



Hora UTC (invierno +1h; verano +2h)
Temperatura (ºC) Humedad (%) Velocidad viento (km/h) Precipitación (mm) Radiación solar (W/m²)
Hora UTC Aire Humedad Vel. Dir. Vel. Max Dir. Intent. máx 5 min. Rad. Sol.
00:05 20.6 80.7 1.9 NNE 1.9 NNE 0.0 0.0
00:10 20.7 79.6 1.7 NE 3.2 ENE 0.0 0.0
00:15 20.7 79.6 1.6 NE 3.5 ENE 0.0 0.0
00:20 20.6 80.1 0.7 NNE 2.1 ENE 0.0 0.0
00:25 20.5 80.7 1.0 NNE 2.1 N 0.0 0.0
00:30 20.5 80.6 1.3 NE 2.5 NE 0.0 0.0
00:35 20.4 81.0 1.4 NE 3.9 ENE 0.0 0.0
00:40 20.6 79.9 2.3 NE 4.6 NNE 0.0 0.0
00:45 20.7 79.1 1.4 NNE 3.9 NE 0.0 0.0
00:50 20.7 79.6 2.3 NE 4.2 ENE 0.0 0.0
00:55 20.7 79.0 2.5 NE 4.9 NE 0.0 0.0
01:00 20.7 79.2 1.9 NE 3.5 NNE 0.0 0.0
01:05 20.6 79.6 2.8 ENE 4.6 ENE 0.0 0.0
01:10 20.6 79.1 2.1 NE 4.6 ENE 0.0 0.0
01:15 20.5 79.9 1.2 NNE 2.5 N 0.0 0.0
01:20 20.4 80.1 1.5 NE 3.5 ENE 0.0 0.0
01:25 20.5 79.3 1.5 NNE 4.2 NE 0.0 0.0
01:30 20.5 79.5 1.1 N 2.1 NNE 0.0 0.0
01:35 20.3 80.4 1.0 NNW 2.1 NNW 0.0 0.0
01:40 20.1 81.2 1.2 NNW 2.1 NNW 0.0 0.0
01:45 20.0 81.3 1.1 NNW 2.1 N 0.0 0.0
01:50 19.9 82.0 1.8 NE 3.5 ENE 0.0 0.0
01:55 20.1 81.1 2.7 NE 3.5 ENE 0.0 0.0
02:00 20.2 80.0 1.7 NE 3.2 NE 0.0 0.0
02:05 19.9 81.1 2.5 ENE 4.2 NE 0.0 0.0
02:10 19.9 80.4 1.7 NNE 3.2 NNE 0.0 0.0
02:15 19.9 80.0 1.0 N 2.1 N 0.0 0.0
02:20 19.8 80.4 1.3 NE 2.8 ENE 0.0 0.0
02:25 19.9 79.5 1.9 NE 3.2 ENE 0.0 0.0
02:30 19.7 80.3 2.9 ENE 5.6 E 0.0 0.0
02:35 19.3 82.0 3.6 ENE 6.0 ENE 0.0 0.0
02:40 19.3 80.0 4.4 ENE 6.4 ENE 0.0 0.0
02:45 19.4 79.5 1.8 NNE 3.9 NE 0.0 0.0
02:50 19.5 78.9 1.6 NE 3.2 ENE 0.0 0.0
02:55 19.6 76.9 1.8 NNE 3.9 NE 0.0 0.0
03:00 19.5 77.6 1.3 N 2.8 N 0.0 0.0
03:05 19.3 78.0 2.5 ENE 4.2 ENE 0.0 0.0
03:10 19.1 78.0 1.9 NNE 3.5 NNE 0.0 0.0
03:15 19.1 78.0 1.9 NE 4.6 ENE 0.0 0.0
03:20 18.9 76.9 3.0 NE 5.6 ENE 0.0 0.0
03:25 18.6 77.6 3.0 ENE 4.9 ENE 0.0 0.0
03:30 18.7 76.8 4.3 ENE 6.0 E 0.0 0.0
03:35 18.8 76.0 3.2 NE 6.0 E 0.0 0.0
03:40 18.9 76.8 2.0 NE 4.6 ENE 0.0 0.0
03:45 18.8 75.6 3.4 NE 7.1 ENE 0.0 0.0
03:50 18.8 76.1 1.8 NE 3.9 ENE 0.0 0.0
03:55 18.8 75.1 2.3 NE 4.6 ENE 0.0 0.0
04:00 18.8 74.8 2.3 NE 3.9 ENE 0.0 0.0
04:05 18.7 75.2 2.4 NE 4.2 ENE 0.0 0.0
04:10 18.7 76.9 1.3 NNE 2.5 NE 0.0 0.0
04:15 18.6 76.1 2.0 NE 3.9 ENE 0.0 0.0
04:20 18.6 77.4 1.7 N 3.2 NNE 0.0 0.0
04:25 18.4 78.6 1.3 NE 2.5 NE 0.0 0.0
04:30 18.4 78.5 0.8 NE 2.8 NE 0.0 0.0
04:35 18.5 78.7 1.3 ENE 3.5 ENE 0.0 0.0
04:40 18.4 77.2 1.5 NE 3.2 ENE 0.0 0.0
04:45 18.5 78.1 2.3 NNE 4.2 ENE 0.0 0.0
04:50 18.6 77.5 0.5 N 2.1 NNE 0.0 0.0
04:55 18.5 77.4 1.8 NE 3.5 ENE 0.0 0.0
05:00 18.5 77.2 1.7 NE 3.5 NE 0.0 0.0
05:05 18.4 78.6 1.5 NNE 2.8 NNE 0.0 0.0
05:10 18.5 78.6 0.4 NNE 2.1 NE 0.0 0.0
05:15 18.4 79.0 1.0 NE 3.2 ENE 0.0 0.1
05:20 18.5 79.5 0.8 NNE 2.1 N 0.0 1.7
05:25 18.5 79.5 1.9 NE 2.8 ENE 0.0 3.4
05:30 18.6 79.3 2.3 NE 4.6 ENE 0.0 5.7
05:35 18.6 79.2 2.1 NE 4.9 ENE 0.0 7.7
05:40 18.4 80.1 2.9 ENE 4.9 ENE 0.0 10.1
05:45 18.5 80.6 2.8 NE 4.6 ENE 0.0 13.0
05:50 18.7 79.5 0.8 NNE 2.5 NE 0.0 15.5
05:55 18.7 80.0 1.0 N 2.1 N 0.0 17.8
06:00 18.7 80.7 2.4 ENE 4.2 NE 0.0 20.2
06:05 18.8 80.3 1.3 NE 2.5 NE 0.0 22.9
06:10 18.8 80.7 2.2 NE 3.5 NE 0.0 25.1
06:15 18.8 81.1 2.8 NE 4.2 ENE 0.0 27.6
06:20 18.8 81.3 1.4 NE 3.2 E 0.0 29.7
06:25 19.0 81.0 1.3 NNE 2.5 ENE 0.0 32.5
06:30 19.2 80.6 1.4 NNE 2.8 N 0.0 36.1
06:35 19.4 80.2 1.5 ENE 3.2 ENE 0.0 144.9
06:40 20.5 76.2 1.2 ENE 2.5 E 0.0 182.4
06:45 20.9 73.7 4.6 ENE 6.7 E 0.0 197.4
06:50 20.8 74.7 3.5 E 6.4 ENE 0.0 213.3
06:55 21.1 72.8 4.7 ENE 6.4 ENE 0.0 230.0
07:00 21.5 71.8 3.3 E 6.0 ENE 0.0 234.1
07:05 22.1 70.0 2.4 E 3.9 ENE 0.0 263.1
07:10 22.7 67.7 4.2 E 7.1 E 0.0 279.7
07:15 22.9 67.1 3.5 E 6.4 E 0.0 296.4
07:20 24.0 65.4 1.4 E 3.2 ENE 0.0 313.1
07:25 25.1 61.5 0.6 E 2.1 ESE 0.0 328.1
07:30 25.9 59.1 0.7 E 2.8 ESE 0.0 343.4
07:35 26.0 57.8 1.6 E 4.6 E 0.0 359.1
07:40 26.0 58.2 0.9 ESE 3.2 ESE 0.0 375.4
07:45 26.5 56.5 1.1 SE 2.5 SSE 0.0 390.0
07:50 26.5 57.0 1.6 SSE 2.8 SSW 0.0 406.0
07:55 26.4 57.6 0.8 SE 1.8 SE 0.0 420.7
08:00 26.8 57.5 1.3 SSE 2.5 S 0.0 436.6
08:05 27.5 55.5 1.6 ESE 4.2 NE 0.0 453.1
08:10 27.7 54.8 1.2 SSE 3.5 SE 0.0 466.6
08:15 28.2 52.8 1.3 SE 3.9 ESE 0.0 480.6
08:20 28.4 53.2 1.6 SE 3.9 S 0.0 495.9
08:25 29.0 51.6 1.3 SSE 3.5 S 0.0 512.0
08:30 29.2 50.4 2.9 S 6.0 S 0.0 525.8
08:35 28.9 49.9 3.7 S 8.1 SSW 0.0 541.2
08:40 29.3 48.7 3.6 SSW 8.8 SSW 0.0 556.5
08:45 29.3 48.4 4.7 SSW 8.5 SSW 0.0 569.0
08:50 29.5 47.9 3.8 SSW 6.7 SSW 0.0 582.6
08:55 30.0 46.5 4.1 SSW 9.5 SSW 0.0 593.9
09:00 30.2 46.0 3.1 S 7.1 S 0.0 604.9
09:05 30.7 44.4 2.5 S 6.4 S 0.0 615.3
09:10 31.4 42.4 3.3 SSE 8.5 SE 0.0 626.3
09:15 31.8 42.0 3.0 SE 7.1 S 0.0 635.4
09:20 31.8 42.5 4.1 SE 10.6 SSE 0.0 646.5
09:25 31.7 43.2 3.1 SE 8.8 SSE 0.0 657.3
09:30 31.5 43.7 4.2 SE 10.6 ESE 0.0 667.5
09:35 31.8 43.5 3.4 S 9.2 SW 0.0 678.4
09:40 32.1 42.8 3.6 SSE 8.5 S 0.0 686.5
09:45 32.6 41.5 3.5 SSE 8.1 SSE 0.0 695.7
09:50 32.7 41.5 3.5 SSE 11.6 SSE 0.0 705.3
09:55 33.4 40.3 2.9 SSE 8.1 ESE 0.0 713.3
10:00 33.6 39.6 2.9 SE 11.6 S 0.0 720.3
10:05 33.3 39.5 3.9 SSW 11.3 SSW 0.0 727.6
10:10 32.8 40.7 4.0 SSW 11.3 SSW 0.0 734.8
10:15 33.0 40.3 4.2 S 13.4 SSW 0.0 742.9
10:20 33.4 39.1 3.7 S 9.2 SSW 0.0 750.5
10:25 33.3 39.0 4.4 SSW 13.1 S 0.0 757.2
10:30 33.2 39.1 4.1 SSW 14.5 SW 0.0 764.1
10:35 33.4 38.1 5.4 SW 15.2 SSW 0.0 771.5
Máxima 33.6 82.0 5.4 SW 15.2 SSW 0.0 771.5
Mínima 18.4 38.1
Total 0.0